createdAt,value
2019-01-08T00:01:42.218Z,23.75
2019-01-08T00:04:10.338Z,21.07
2019-01-08T00:06:38.492Z,24.40
2019-01-08T00:09:06.619Z,24.40
2019-01-08T00:11:34.767Z,22.17
2019-01-08T00:14:03.050Z,25.23
2019-01-08T00:16:31.205Z,19.12
2019-01-08T00:18:59.346Z,21.73
2019-01-08T00:21:27.635Z,20.30
2019-01-08T00:23:55.779Z,23.73
2019-01-08T00:26:23.891Z,18.40
2019-01-08T00:28:52.038Z,25.00
2019-01-08T00:31:20.168Z,21.17
2019-01-08T00:33:48.314Z,22.87
2019-01-08T00:36:16.443Z,19.02
2019-01-08T00:38:44.746Z,23.25
2019-01-08T00:41:12.882Z,25.72
2019-01-08T00:43:40.986Z,16.67
2019-01-08T00:46:09.122Z,16.05
2019-01-08T00:48:37.237Z,23.80
2019-01-08T00:51:05.379Z,19.77
2019-01-08T00:53:33.496Z,23.60
2019-01-08T00:56:01.689Z,21.33
2019-01-08T00:58:29.805Z,21.95
2019-01-08T01:00:57.923Z,19.30
2019-01-08T01:03:26.160Z,18.73
2019-01-08T01:05:54.783Z,18.48
2019-01-08T01:08:22.923Z,20.32
2019-01-08T01:10:51.052Z,20.35
2019-01-08T01:13:19.414Z,16.50
2019-01-08T01:15:47.533Z,18.57
2019-01-08T01:18:15.644Z,17.57
2019-01-08T01:20:43.780Z,19.32
2019-01-08T01:23:11.902Z,17.42
2019-01-08T01:25:40.077Z,18.35
2019-01-08T01:28:08.194Z,15.83
2019-01-08T01:30:36.390Z,19.82
2019-01-08T01:33:04.463Z,16.67
2019-01-08T01:35:32.684Z,20.00
2019-01-08T01:38:00.793Z,13.03
2019-01-08T01:40:28.910Z,15.08
2019-01-08T01:42:57.071Z,15.75
2019-01-08T01:45:25.111Z,16.87
2019-01-08T01:47:53.440Z,15.08
2019-01-08T01:50:21.552Z,13.38
2019-01-08T01:52:49.650Z,15.70
2019-01-08T01:55:17.805Z,17.27
2019-01-08T01:57:45.939Z,13.28
2019-01-08T02:00:14.106Z,13.20
2019-01-08T02:02:42.218Z,12.33
2019-01-08T02:05:10.471Z,11.15
2019-01-08T02:07:38.688Z,17.30
2019-01-08T02:10:07.130Z,12.85
2019-01-08T02:12:35.285Z,13.60
2019-01-08T02:15:03.399Z,10.72
2019-01-08T02:17:31.538Z,9.53
2019-01-08T02:19:59.650Z,10.72
2019-01-08T02:22:27.778Z,12.33
2019-01-08T02:24:55.905Z,10.68
2019-01-08T02:27:24.224Z,12.95
2019-01-08T02:29:52.446Z,10.80
2019-01-08T02:32:21.960Z,10.63
2019-01-08T02:34:50.498Z,9.60
2019-01-08T02:37:18.632Z,10.15
2019-01-08T02:39:46.729Z,9.13
2019-01-08T02:42:14.863Z,11.73
2019-01-08T02:44:43.061Z,13.40
2019-01-08T02:47:11.328Z,10.28
2019-01-08T02:49:39.453Z,9.53
2019-01-08T02:52:07.725Z,8.38
2019-01-08T02:54:35.865Z,14.63
2019-01-08T02:57:03.963Z,9.65
2019-01-08T02:59:32.111Z,11.53
2019-01-08T03:02:00.200Z,8.50
2019-01-08T03:04:28.359Z,12.13
2019-01-08T03:06:56.502Z,9.33
2019-01-08T03:09:24.652Z,7.53
2019-01-08T03:11:52.962Z,8.60
2019-01-08T03:14:21.066Z,9.60
2019-01-08T03:16:49.219Z,6.03
2019-01-08T03:19:17.339Z,6.45
2019-01-08T03:21:45.460Z,9.43
2019-01-08T03:24:13.569Z,7.15
2019-01-08T03:26:41.724Z,6.03
2019-01-08T03:29:09.825Z,8.95
2019-01-08T03:31:37.946Z,4.90
2019-01-08T03:34:06.070Z,6.47
2019-01-08T03:36:34.281Z,5.58
2019-01-08T03:39:02.427Z,5.65
2019-01-08T03:41:30.530Z,13.83
2019-01-08T03:43:58.635Z,3.47
2019-01-08T03:46:26.771Z,2.85
2019-01-08T03:48:54.883Z,5.75
2019-01-08T03:51:23.010Z,5.50
2019-01-08T03:53:51.118Z,3.90
2019-01-08T03:56:19.413Z,3.87
2019-01-08T03:58:47.526Z,4.62
2019-01-08T04:01:15.643Z,4.67
2019-01-08T04:03:43.776Z,4.70
2019-01-08T04:06:11.894Z,5.58
2019-01-08T04:08:40.049Z,5.90
2019-01-08T04:11:08.159Z,4.58
2019-01-08T04:13:36.347Z,3.85
2019-01-08T04:16:04.447Z,3.55
2019-01-08T04:18:32.579Z,5.72
2019-01-08T04:21:00.708Z,3.25
2019-01-08T04:23:29.524Z,3.80
2019-01-08T04:25:57.747Z,3.65
2019-01-08T04:28:25.846Z,4.60
2019-01-08T04:30:54.004Z,4.92
2019-01-08T04:33:22.123Z,2.40
2019-01-08T04:35:50.260Z,2.60
2019-01-08T04:38:18.367Z,2.37
2019-01-08T04:40:46.463Z,3.08
2019-01-08T04:43:14.727Z,4.33
2019-01-08T04:45:42.853Z,2.15
2019-01-08T04:48:10.979Z,1.92
2019-01-08T04:50:39.184Z,1.20
2019-01-08T04:53:07.332Z,1.60
2019-01-08T04:55:35.473Z,2.37
2019-01-08T04:58:03.647Z,1.35
2019-01-08T05:00:31.747Z,1.90
2019-01-08T05:02:59.859Z,1.40
2019-01-08T05:05:27.987Z,2.05
2019-01-08T05:07:56.154Z,2.12
2019-01-08T05:10:24.304Z,1.17
2019-01-08T05:12:52.412Z,1.40
2019-01-08T05:15:20.566Z,1.10
2019-01-08T05:17:48.682Z,1.70
2019-01-08T05:20:16.821Z,1.87
2019-01-08T05:22:44.930Z,2.05
2019-01-08T05:25:13.122Z,1.30
2019-01-08T05:27:41.251Z,1.65
2019-01-08T05:30:09.689Z,1.40
2019-01-08T05:32:37.821Z,1.40
2019-01-08T05:35:06.067Z,6.67
2019-01-08T05:37:34.207Z,1.55
2019-01-08T05:40:02.433Z,1.95
2019-01-08T05:42:30.527Z,7.10
2019-01-08T05:44:58.692Z,1.50
2019-01-08T05:47:26.807Z,2.20
2019-01-08T05:49:54.961Z,1.65
2019-01-08T05:52:23.113Z,5.97
2019-01-08T05:54:51.244Z,3.27
2019-01-08T05:57:19.379Z,2.90
2019-01-08T05:59:47.524Z,2.27
2019-01-08T06:02:15.636Z,1.75
2019-01-08T06:04:43.786Z,5.72
2019-01-08T06:07:11.914Z,1.85
2019-01-08T06:09:40.075Z,2.33
2019-01-08T06:12:08.212Z,1.80
2019-01-08T06:14:36.899Z,2.37
2019-01-08T06:17:05.342Z,5.10
2019-01-08T06:19:33.388Z,2.93
2019-01-08T06:22:01.422Z,2.40
2019-01-08T06:24:29.478Z,3.27
2019-01-08T06:26:57.518Z,3.27
2019-01-08T06:29:25.655Z,1.85
2019-01-08T06:31:54.028Z,2.30
2019-01-08T06:34:22.191Z,2.40
2019-01-08T06:36:50.207Z,1.97
2019-01-08T06:39:18.240Z,3.90
2019-01-08T06:41:46.298Z,2.40
2019-01-08T06:44:14.333Z,4.00
2019-01-08T06:46:43.232Z,2.50
2019-01-08T06:49:11.439Z,3.17
2019-01-08T06:51:39.502Z,7.90
2019-01-08T06:54:07.564Z,3.23
2019-01-08T06:56:35.810Z,4.43
2019-01-08T06:59:03.839Z,5.90
2019-01-08T07:01:31.867Z,7.33
2019-01-08T07:03:59.925Z,2.37
2019-01-08T07:06:27.965Z,2.60
2019-01-08T07:08:56.052Z,6.10
2019-01-08T07:11:24.082Z,4.00
2019-01-08T07:13:52.214Z,5.08
2019-01-08T07:16:20.388Z,5.90
2019-01-08T07:18:48.635Z,5.23
2019-01-08T07:21:16.649Z,3.80
2019-01-08T07:23:46.322Z,3.33
2019-01-08T07:26:14.351Z,4.73
2019-01-08T07:28:42.450Z,2.52
2019-01-08T07:31:10.511Z,5.40
2019-01-08T07:33:38.565Z,2.20
2019-01-08T07:36:06.695Z,6.78
2019-01-08T07:38:34.739Z,3.17
2019-01-08T07:41:02.945Z,14.03
2019-01-08T07:43:30.974Z,4.80
2019-01-08T07:45:59.019Z,2.87
2019-01-08T07:48:27.143Z,6.90
2019-01-08T07:50:55.202Z,3.23
2019-01-08T07:53:23.375Z,3.33
2019-01-08T07:55:51.398Z,4.10
2019-01-08T07:58:19.469Z,1.83
2019-01-08T08:00:50.132Z,1.83
2019-01-08T08:03:17.299Z,3.33
2019-01-08T08:05:45.451Z,2.80
2019-01-08T08:08:13.496Z,4.33
2019-01-08T08:10:41.818Z,4.58
2019-01-08T08:13:09.847Z,2.27
2019-01-08T08:15:37.968Z,6.55
2019-01-08T08:18:06.009Z,6.80
2019-01-08T08:20:34.035Z,4.40
2019-01-08T08:23:02.090Z,5.73
2019-01-08T08:25:30.107Z,4.27
2019-01-08T08:27:58.169Z,6.40
2019-01-08T08:30:26.395Z,4.37
2019-01-08T08:32:54.650Z,6.07
2019-01-08T08:35:22.761Z,3.37
2019-01-08T08:37:51.056Z,5.60
2019-01-08T08:40:19.103Z,4.20
2019-01-08T08:42:47.123Z,2.00
2019-01-08T08:45:15.190Z,8.33
2019-01-08T08:47:43.204Z,8.87
2019-01-08T08:50:11.251Z,3.30
2019-01-08T08:52:39.296Z,1.80
2019-01-08T08:55:07.339Z,3.63
2019-01-08T08:57:35.378Z,6.00
2019-01-08T09:00:03.483Z,4.67
2019-01-08T09:02:31.509Z,5.37
2019-01-08T09:04:59.537Z,6.93
2019-01-08T09:07:27.587Z,7.53
2019-01-08T09:09:55.643Z,12.30
2019-01-08T09:12:23.704Z,3.47
2019-01-08T09:14:51.722Z,8.47
2019-01-08T09:17:19.779Z,3.63
2019-01-08T09:19:47.803Z,8.10
2019-01-08T09:22:15.856Z,3.27
2019-01-08T09:24:43.879Z,9.57
2019-01-08T09:27:11.928Z,4.73
2019-01-08T09:29:39.981Z,5.40
2019-01-08T09:32:08.007Z,6.20
2019-01-08T09:34:36.070Z,5.23
2019-01-08T09:37:04.095Z,2.50
2019-01-08T09:39:32.170Z,7.70
2019-01-08T09:42:00.195Z,7.20
2019-01-08T09:44:28.277Z,6.73
2019-01-08T09:46:56.327Z,4.30
2019-01-08T09:49:25.990Z,3.33
2019-01-08T09:51:54.065Z,4.10
2019-01-08T09:54:22.077Z,3.83
2019-01-08T09:56:50.130Z,13.33
2019-01-08T09:59:18.171Z,5.53
2019-01-08T10:01:46.214Z,3.67
2019-01-08T10:04:14.311Z,2.67
2019-01-08T10:06:42.380Z,9.43
2019-01-08T10:09:10.415Z,3.93
2019-01-08T10:11:38.435Z,7.33
2019-01-08T10:14:06.483Z,7.20
2019-01-08T10:16:34.511Z,5.77
2019-01-08T10:19:02.560Z,4.60
2019-01-08T10:21:30.592Z,4.83
2019-01-08T10:23:58.665Z,13.70
2019-01-08T10:26:26.700Z,6.20
2019-01-08T10:28:54.991Z,5.10
2019-01-08T10:31:23.090Z,9.40
2019-01-08T10:33:51.133Z,5.53
2019-01-08T10:36:19.298Z,18.53
2019-01-08T10:38:47.842Z,3.53
2019-01-08T10:41:15.988Z,2.33
2019-01-08T10:43:44.412Z,2.40
2019-01-08T10:46:12.715Z,9.23
2019-01-08T10:48:40.908Z,6.83
2019-01-08T10:51:09.197Z,7.30
2019-01-08T10:53:37.259Z,5.23
2019-01-08T10:56:05.447Z,6.73
2019-01-08T10:58:33.498Z,3.73
2019-01-08T11:01:01.551Z,5.97
2019-01-08T11:03:29.613Z,3.33
2019-01-08T11:05:58.100Z,15.70
2019-01-08T11:08:26.236Z,8.50
2019-01-08T11:10:54.386Z,3.03
2019-01-08T11:13:23.023Z,4.70
2019-01-08T11:15:51.054Z,5.90
2019-01-08T11:18:19.694Z,4.10
2019-01-08T11:20:48.071Z,3.60
2019-01-08T11:23:16.089Z,3.77
2019-01-08T11:25:44.236Z,7.00
2019-01-08T11:28:18.346Z,5.07
2019-01-08T11:30:46.484Z,8.20
2019-01-08T11:33:15.369Z,6.27
2019-01-08T11:35:43.721Z,5.63
2019-01-08T11:38:11.847Z,9.13
2019-01-08T11:40:46.229Z,7.50
2019-01-08T11:43:14.521Z,6.27
2019-01-08T11:45:42.512Z,2.00
2019-01-08T11:48:16.514Z,8.97
2019-01-08T11:50:44.637Z,4.20
2019-01-08T11:53:12.687Z,11.40
2019-01-08T11:55:40.751Z,5.13
2019-01-08T11:58:08.883Z,4.50
2019-01-08T12:00:36.954Z,3.57
2019-01-08T12:03:05.083Z,5.27
2019-01-08T12:05:33.123Z,6.77
2019-01-08T12:08:01.306Z,7.10
2019-01-08T12:10:29.463Z,10.00
2019-01-08T12:12:58.272Z,98.60
2019-01-08T12:15:26.325Z,109.67
2019-01-08T12:17:54.387Z,139.47
2019-01-08T12:20:22.434Z,14.63
2019-01-08T12:22:50.529Z,3.13
2019-01-08T12:25:18.691Z,4.63
2019-01-08T12:27:46.777Z,10.40
2019-01-08T12:30:14.808Z,3.50
2019-01-08T12:32:43.377Z,9.10
2019-01-08T12:35:17.969Z,2.97
2019-01-08T12:37:46.542Z,5.00
2019-01-08T12:40:14.564Z,15.83
2019-01-08T12:42:42.794Z,5.03
2019-01-08T12:45:10.830Z,3.87
2019-01-08T12:47:38.879Z,5.90
2019-01-08T12:50:07.323Z,6.83
2019-01-08T12:52:35.552Z,6.00
2019-01-08T12:55:03.737Z,5.90
2019-01-08T12:57:31.831Z,10.73
2019-01-08T12:59:59.902Z,4.60
2019-01-08T13:02:27.925Z,2.73
2019-01-08T13:04:56.116Z,4.67
2019-01-08T13:07:24.619Z,2.83
2019-01-08T13:09:52.640Z,3.00
2019-01-08T13:12:20.862Z,12.13
2019-01-08T13:14:48.879Z,3.77
2019-01-08T13:17:16.932Z,6.10
2019-01-08T13:19:45.847Z,3.13
2019-01-08T13:22:13.985Z,5.23
2019-01-08T13:24:41.998Z,1.90
2019-01-08T13:27:14.979Z,35.10
2019-01-08T13:29:43.079Z,26.80
2019-01-08T13:32:11.126Z,8.53
2019-01-08T13:34:39.342Z,3.50
2019-01-08T13:37:07.390Z,5.33
2019-01-08T13:39:35.449Z,11.13
2019-01-08T13:42:03.483Z,3.90
2019-01-08T13:44:42.984Z,44.37
2019-01-08T13:47:11.052Z,6.50
2019-01-08T13:49:39.240Z,3.97
2019-01-08T13:52:07.267Z,16.67
2019-01-08T13:54:35.295Z,4.83
2019-01-08T13:57:03.355Z,4.63
2019-01-08T13:59:32.144Z,11.90
2019-01-08T14:02:00.196Z,3.70
2019-01-08T14:04:28.228Z,6.00
2019-01-08T14:06:56.513Z,6.97
2019-01-08T14:09:24.586Z,5.40
2019-01-08T14:11:52.808Z,7.20
2019-01-08T14:14:21.363Z,6.83
2019-01-08T14:16:49.475Z,5.80
2019-01-08T14:19:17.554Z,3.07
2019-01-08T14:21:46.361Z,9.10
2019-01-08T14:24:14.432Z,8.50
2019-01-08T14:26:42.480Z,4.67
2019-01-08T14:29:10.600Z,15.93
2019-01-08T14:31:38.631Z,8.43
2019-01-08T14:34:07.569Z,3.93
2019-01-08T14:36:36.017Z,9.47
2019-01-08T14:39:05.215Z,4.50
2019-01-08T14:41:33.466Z,12.97
2019-01-08T14:44:01.612Z,4.83
2019-01-08T14:46:29.691Z,3.83
2019-01-08T14:48:58.034Z,4.20
2019-01-08T14:51:26.250Z,6.40
2019-01-08T14:53:54.347Z,4.40
2019-01-08T14:56:22.431Z,2.90
2019-01-08T14:58:50.639Z,7.93
2019-01-08T15:01:18.713Z,5.30
2019-01-08T15:03:46.842Z,3.63
2019-01-08T15:06:15.072Z,8.20
2019-01-08T15:08:43.127Z,4.00
2019-01-08T15:11:11.232Z,5.27
2019-01-08T15:13:39.272Z,12.27
2019-01-08T15:16:07.339Z,1.73
2019-01-08T15:18:35.404Z,3.27
2019-01-08T15:21:03.455Z,2.30
2019-01-08T15:23:31.800Z,7.70
2019-01-08T15:25:59.911Z,3.53
2019-01-08T15:28:27.929Z,9.43
2019-01-08T15:30:55.980Z,6.53
2019-01-08T15:33:24.537Z,2.87
2019-01-08T15:35:52.671Z,3.93
2019-01-08T15:38:20.789Z,6.50
2019-01-08T15:40:48.816Z,1.90
2019-01-08T15:43:16.879Z,12.43
2019-01-08T15:45:44.915Z,2.43
2019-01-08T15:48:12.986Z,5.30
2019-01-08T15:50:41.702Z,3.43
2019-01-08T15:53:09.691Z,4.77
2019-01-08T15:55:37.751Z,6.40
2019-01-08T15:58:05.788Z,8.07
2019-01-08T16:00:33.839Z,4.90
2019-01-08T16:03:07.235Z,2.37
2019-01-08T16:05:31.789Z,3.23
2019-01-08T16:07:59.820Z,3.17
2019-01-08T16:10:27.900Z,1.00
2019-01-08T16:12:55.925Z,1.90
2019-01-08T16:15:23.956Z,3.10
2019-01-08T16:17:52.297Z,15.60
2019-01-08T16:20:20.310Z,2.90
2019-01-08T16:22:48.394Z,3.30
2019-01-08T16:25:16.414Z,4.30
2019-01-08T16:27:44.882Z,2.20
2019-01-08T16:30:12.924Z,6.43
2019-01-08T16:32:40.955Z,3.90
2019-01-08T16:35:09.017Z,7.10
2019-01-08T16:37:37.042Z,8.10
2019-01-08T16:40:05.867Z,6.33
2019-01-08T16:42:33.933Z,3.60
2019-01-08T16:45:02.265Z,4.30
2019-01-08T16:47:30.409Z,4.80
2019-01-08T16:49:58.617Z,2.07
2019-01-08T16:52:26.663Z,6.13
2019-01-08T16:54:54.693Z,7.93
2019-01-08T16:57:22.746Z,2.97
2019-01-08T16:59:50.874Z,5.37
2019-01-08T17:02:19.012Z,7.00
2019-01-08T17:04:47.038Z,7.60
2019-01-08T17:07:15.100Z,7.93
2019-01-08T17:09:43.189Z,3.37
2019-01-08T17:12:11.264Z,15.43
2019-01-08T17:14:39.320Z,8.97
2019-01-08T17:17:07.364Z,10.90
2019-01-08T17:19:35.427Z,10.53
2019-01-08T17:22:03.458Z,3.20
2019-01-08T17:24:31.520Z,5.37
2019-01-08T17:26:59.563Z,17.10
2019-01-08T17:29:27.767Z,8.40
2019-01-08T17:31:55.792Z,5.40
2019-01-08T17:34:23.839Z,12.90
2019-01-08T17:36:51.892Z,10.33
2019-01-08T17:39:19.915Z,4.73
2019-01-08T17:41:47.982Z,4.53
2019-01-08T17:44:16.024Z,3.80
2019-01-08T17:46:44.106Z,6.60
2019-01-08T17:49:12.158Z,7.43
2019-01-08T17:51:40.581Z,4.87
2019-01-08T17:54:08.660Z,13.00
2019-01-08T17:56:36.678Z,3.97
2019-01-08T17:59:14.987Z,7.67
2019-01-08T18:01:45.758Z,6.40
2019-01-08T18:04:13.831Z,5.40
2019-01-08T18:06:41.986Z,6.90
2019-01-08T18:09:10.099Z,10.67
2019-01-08T18:11:38.146Z,6.03
2019-01-08T18:14:06.184Z,10.50
2019-01-08T18:16:34.234Z,5.07
2019-01-08T18:19:02.369Z,3.90
2019-01-08T18:21:30.710Z,5.03
2019-01-08T18:23:58.743Z,9.00
2019-01-08T18:26:26.810Z,5.13
2019-01-08T18:28:54.841Z,4.47
2019-01-08T18:31:22.863Z,5.03
2019-01-08T18:33:51.734Z,7.10
2019-01-08T18:36:20.233Z,3.77
2019-01-08T18:38:48.262Z,8.37
2019-01-08T18:41:16.328Z,6.70
2019-01-08T18:43:44.343Z,6.43
2019-01-08T18:46:12.403Z,7.03
2019-01-08T18:48:40.427Z,11.13
2019-01-08T18:51:08.456Z,5.57
2019-01-08T18:53:36.503Z,4.80
2019-01-08T18:56:04.546Z,5.90
2019-01-08T18:58:32.606Z,7.53
2019-01-08T19:01:00.631Z,4.17
2019-01-08T19:03:28.686Z,5.57
2019-01-08T19:05:56.727Z,10.03
2019-01-08T19:08:34.522Z,11.40
2019-01-08T19:11:02.608Z,7.47
2019-01-08T19:13:30.669Z,9.77
2019-01-08T19:15:58.735Z,3.23
2019-01-08T19:18:26.771Z,6.27
2019-01-08T19:20:55.804Z,7.73
2019-01-08T19:23:23.927Z,8.08
2019-01-08T19:25:51.970Z,8.63
2019-01-08T19:28:20.032Z,16.87
2019-01-08T19:30:48.075Z,13.47
2019-01-08T19:33:35.513Z,7.37
2019-01-08T19:36:03.529Z,8.63
2019-01-08T19:38:31.575Z,13.67
2019-01-08T19:40:59.682Z,10.27
2019-01-08T19:43:27.791Z,5.83
2019-01-08T19:45:55.991Z,8.83
2019-01-08T19:48:24.026Z,9.20
2019-01-08T19:50:52.243Z,8.57
2019-01-08T19:53:20.266Z,13.47
2019-01-08T19:55:48.414Z,11.83
2019-01-08T19:58:16.474Z,21.73
2019-01-08T20:00:44.541Z,16.43
2019-01-08T20:03:12.786Z,11.03
2019-01-08T20:05:40.819Z,6.63
2019-01-08T20:08:08.971Z,10.77
2019-01-08T20:10:36.998Z,4.47
2019-01-08T20:13:05.083Z,6.70
2019-01-08T20:15:33.113Z,9.77
2019-01-08T20:18:01.163Z,3.13
2019-01-08T20:20:31.385Z,3.08
2019-01-08T20:22:59.456Z,8.37
2019-01-08T20:25:27.495Z,7.30
2019-01-08T20:27:55.617Z,5.93
2019-01-08T20:30:23.684Z,5.73
2019-01-08T20:32:51.824Z,8.05
2019-01-08T20:35:19.886Z,5.83
2019-01-08T20:37:47.943Z,10.80
2019-01-08T20:40:16.105Z,6.45
2019-01-08T20:42:44.138Z,7.80
2019-01-08T20:45:12.184Z,6.53
2019-01-08T20:47:42.421Z,5.83
2019-01-08T20:50:10.027Z,12.97
2019-01-08T20:52:38.128Z,6.60
2019-01-08T20:55:06.161Z,7.00
2019-01-08T20:57:34.277Z,4.47
2019-01-08T21:00:02.307Z,3.20
2019-01-08T21:02:30.360Z,13.30
2019-01-08T21:04:58.418Z,8.90
2019-01-08T21:07:26.460Z,5.03
2019-01-08T21:09:54.578Z,2.55
2019-01-08T21:12:22.947Z,8.08
2019-01-08T21:14:51.026Z,7.87
2019-01-08T21:17:19.130Z,10.03
2019-01-08T21:19:47.170Z,3.03
2019-01-08T21:22:15.244Z,4.20
2019-01-08T21:24:43.283Z,4.93
2019-01-08T21:27:11.422Z,5.53
2019-01-08T21:29:39.455Z,11.80
2019-01-08T21:32:07.532Z,8.20
2019-01-08T21:34:44.006Z,8.43
2019-01-08T21:37:05.455Z,4.37
2019-01-08T21:39:33.564Z,4.72
2019-01-08T21:42:01.655Z,10.63
2019-01-08T21:44:29.765Z,4.22
2019-01-08T21:46:57.892Z,2.77
2019-01-08T21:49:25.938Z,5.10
2019-01-08T21:51:53.995Z,2.93
2019-01-08T21:54:22.125Z,3.02
2019-01-08T21:56:50.252Z,3.30
2019-01-08T21:59:18.393Z,3.42
2019-01-08T22:01:46.635Z,5.78
2019-01-08T22:04:14.867Z,15.35
2019-01-08T22:06:43.026Z,8.15
2019-01-08T22:09:11.131Z,3.05
2019-01-08T22:11:39.271Z,9.68
2019-01-08T22:14:07.444Z,10.18
2019-01-08T22:16:35.594Z,15.93
2019-01-08T22:19:03.723Z,7.60
2019-01-08T22:21:31.914Z,15.23
2019-01-08T22:24:00.047Z,15.83
2019-01-08T22:26:28.392Z,5.97
2019-01-08T22:28:56.523Z,17.40
2019-01-08T22:31:24.593Z,13.37
2019-01-08T22:33:53.109Z,8.60
2019-01-08T22:36:21.232Z,21.05
2019-01-08T22:38:50.524Z,4.93
2019-01-08T22:41:18.678Z,16.23
2019-01-08T22:43:46.838Z,10.85
2019-01-08T22:46:14.974Z,6.60
2019-01-08T22:48:43.159Z,10.13
2019-01-08T22:51:11.296Z,18.20
2019-01-08T22:53:39.338Z,11.50
2019-01-08T22:56:07.488Z,11.05
2019-01-08T22:58:35.587Z,7.12
2019-01-08T23:01:18.320Z,7.97
2019-01-08T23:03:46.435Z,13.98
2019-01-08T23:06:14.609Z,25.88
2019-01-08T23:08:42.733Z,15.40
2019-01-08T23:11:10.876Z,7.05
2019-01-08T23:13:39.023Z,10.88
2019-01-08T23:16:07.133Z,7.67
2019-01-08T23:18:35.271Z,5.53
2019-01-08T23:21:03.379Z,6.87
2019-01-08T23:23:31.516Z,8.63
2019-01-08T23:25:59.627Z,7.10
2019-01-08T23:28:27.787Z,6.83
2019-01-08T23:30:55.940Z,9.80
2019-01-08T23:33:24.082Z,7.15
2019-01-08T23:35:52.206Z,5.90
2019-01-08T23:38:20.330Z,1.45
2019-01-08T23:40:48.475Z,11.73
2019-01-08T23:43:16.590Z,2.77
2019-01-08T23:45:44.755Z,15.72
2019-01-08T23:48:12.879Z,9.75
2019-01-08T23:50:41.066Z,5.37
2019-01-08T23:53:10.271Z,7.55
2019-01-08T23:55:42.038Z,6.95
2019-01-08T23:58:12.134Z,15.08
